createdAt,value
2023-04-26T00:00:09.762Z,66.75
2023-04-26T00:02:11.986Z,67.24
2023-04-26T00:04:14.336Z,67.27
2023-04-26T00:06:16.460Z,67.46
2023-04-26T00:08:18.036Z,67.49
2023-04-26T00:10:19.737Z,67.59
2023-04-26T00:12:22.255Z,67.28
2023-04-26T00:14:24.083Z,67.29
2023-04-26T00:16:25.852Z,67.38
2023-04-26T00:18:27.477Z,67.46
2023-04-26T00:20:29.203Z,66.58
2023-04-26T00:22:31.472Z,66.28
2023-04-26T00:24:33.231Z,66.13
2023-04-26T00:26:35.142Z,66.92
2023-04-26T00:28:36.753Z,67.41
2023-04-26T00:30:41.317Z,67.92
2023-04-26T00:32:42.984Z,68.66
2023-04-26T00:34:44.583Z,69.51
2023-04-26T00:36:46.190Z,69.84
2023-04-26T00:38:47.937Z,69.84
2023-04-26T00:40:49.548Z,70.10
2023-04-26T00:42:57.883Z,70.15
2023-04-26T00:44:59.483Z,70.16
2023-04-26T00:47:01.702Z,70.10
2023-04-26T00:49:03.595Z,70.53
2023-04-26T00:51:06.116Z,70.59
2023-04-26T00:53:08.596Z,70.44
2023-04-26T00:55:10.517Z,70.66
2023-04-26T00:57:12.874Z,70.60
2023-04-26T00:59:14.522Z,70.55
2023-04-26T01:01:16.141Z,70.69
2023-04-26T01:03:18.249Z,71.07
2023-04-26T01:05:20.106Z,70.96
2023-04-26T01:07:21.654Z,70.91
2023-04-26T01:09:23.230Z,70.87
2023-04-26T01:11:25.094Z,71.01
2023-04-26T01:13:26.878Z,71.37
2023-04-26T01:15:30.383Z,71.44
2023-04-26T01:17:32.099Z,71.70
2023-04-26T01:19:33.738Z,71.48
2023-04-26T01:21:35.368Z,71.86
2023-04-26T01:23:36.960Z,71.88
2023-04-26T01:25:38.801Z,71.69
2023-04-26T01:27:40.466Z,71.99
2023-04-26T01:29:42.176Z,72.05
2023-04-26T01:31:44.028Z,72.29
2023-04-26T01:33:45.801Z,71.98
2023-04-26T01:35:47.419Z,72.12
2023-04-26T01:37:49.070Z,73.02
2023-04-26T01:39:50.783Z,73.03
2023-04-26T01:41:52.462Z,72.91
2023-04-26T01:43:54.117Z,72.77
2023-04-26T01:45:55.803Z,72.32
2023-04-26T01:47:58.224Z,71.05
2023-04-26T01:49:59.826Z,69.10
2023-04-26T01:52:01.476Z,69.30
2023-04-26T01:54:03.399Z,68.90
2023-04-26T01:56:05.979Z,67.79
2023-04-26T01:58:07.646Z,67.74
2023-04-26T02:00:09.866Z,67.77
2023-04-26T02:02:11.545Z,67.62
2023-04-26T02:04:13.321Z,67.59
2023-04-26T02:06:14.875Z,67.33
2023-04-26T02:08:16.414Z,68.77
2023-04-26T02:10:18.198Z,69.34
2023-04-26T02:12:19.767Z,69.73
2023-04-26T02:14:21.353Z,69.78
2023-04-26T02:16:23.145Z,69.02
2023-04-26T02:18:25.277Z,68.92
2023-04-26T02:20:26.907Z,69.68
2023-04-26T02:22:29.657Z,70.29
2023-04-26T02:24:33.051Z,70.92
2023-04-26T02:26:35.078Z,71.07
2023-04-26T02:28:36.946Z,71.59
2023-04-26T02:30:38.679Z,71.40
2023-04-26T02:32:40.380Z,70.71
2023-04-26T02:34:43.181Z,70.84
2023-04-26T02:36:44.797Z,70.69
2023-04-26T02:38:46.539Z,70.53
2023-04-26T02:40:48.207Z,70.10
2023-04-26T02:42:49.840Z,70.38
2023-04-26T02:44:51.920Z,70.80
2023-04-26T02:46:53.595Z,70.53
2023-04-26T02:48:55.640Z,70.62
2023-04-26T02:50:57.431Z,70.50
2023-04-26T02:52:59.111Z,70.43
2023-04-26T02:55:01.297Z,70.74
2023-04-26T02:57:02.907Z,70.93
2023-04-26T02:59:04.546Z,70.77
2023-04-26T03:01:06.186Z,71.33
2023-04-26T03:03:08.051Z,71.40
2023-04-26T03:05:10.681Z,71.59
2023-04-26T03:07:12.320Z,71.34
2023-04-26T03:09:13.986Z,71.40
2023-04-26T03:11:15.598Z,72.09
2023-04-26T03:13:17.168Z,72.12
2023-04-26T03:15:18.809Z,72.51
2023-04-26T03:17:20.402Z,72.61
2023-04-26T03:19:22.033Z,72.49
2023-04-26T03:21:23.755Z,71.97
2023-04-26T03:23:25.435Z,72.04
2023-04-26T03:25:27.091Z,72.18
2023-04-26T03:27:28.711Z,71.91
2023-04-26T03:29:30.656Z,72.71
2023-04-26T03:31:32.271Z,72.98
2023-04-26T03:33:33.877Z,72.82
2023-04-26T03:35:35.500Z,72.01
2023-04-26T03:37:39.882Z,71.79
2023-04-26T03:39:41.657Z,72.02
2023-04-26T03:41:43.349Z,71.75
2023-04-26T03:43:45.053Z,71.38
2023-04-26T03:45:50.183Z,72.03
2023-04-26T03:47:51.868Z,72.30
2023-04-26T03:49:53.468Z,72.18
2023-04-26T03:51:55.035Z,72.47
2023-04-26T03:53:56.599Z,72.32
2023-04-26T03:55:58.386Z,72.65
2023-04-26T03:58:00.039Z,72.65
2023-04-26T04:00:01.892Z,72.02
2023-04-26T04:02:03.498Z,71.20
2023-04-26T04:04:05.558Z,71.18
2023-04-26T04:06:08.042Z,71.47
2023-04-26T04:08:09.725Z,70.91
2023-04-26T04:10:11.599Z,70.20
2023-04-26T04:12:13.274Z,69.67
2023-04-26T04:14:14.844Z,69.71
2023-04-26T04:16:16.575Z,69.40
2023-04-26T04:18:18.219Z,69.37
2023-04-26T04:20:21.455Z,68.85
2023-04-26T04:22:23.081Z,69.29
2023-04-26T04:24:24.714Z,69.25
2023-04-26T04:26:28.029Z,69.61
2023-04-26T04:28:29.964Z,71.08
2023-04-26T04:30:32.107Z,73.29
2023-04-26T04:32:33.746Z,73.64
2023-04-26T04:34:36.342Z,73.18
2023-04-26T04:36:39.052Z,73.07
2023-04-26T04:38:40.907Z,71.95
2023-04-26T04:40:42.532Z,70.87
2023-04-26T04:42:45.038Z,70.61
2023-04-26T04:44:46.732Z,70.35
2023-04-26T04:46:48.441Z,69.74
2023-04-26T04:48:50.308Z,69.68
2023-04-26T04:50:52.812Z,69.16
2023-04-26T04:52:54.407Z,69.57
2023-04-26T04:54:56.091Z,70.90
2023-04-26T04:56:57.708Z,71.62
2023-04-26T04:58:59.281Z,72.87
2023-04-26T05:01:01.357Z,71.58
2023-04-26T05:03:03.321Z,71.45
2023-04-26T05:05:05.602Z,70.85
2023-04-26T05:07:07.835Z,69.64
2023-04-26T05:09:09.622Z,69.11
2023-04-26T05:11:11.248Z,68.70
2023-04-26T05:13:12.863Z,68.38
2023-04-26T05:15:14.674Z,67.84
2023-04-26T05:17:16.385Z,68.08
2023-04-26T05:19:18.069Z,68.92
2023-04-26T05:21:19.944Z,68.92
2023-04-26T05:23:21.569Z,68.75
2023-04-26T05:25:23.202Z,69.27
2023-04-26T05:27:24.871Z,68.72
2023-04-26T05:29:32.675Z,67.85
2023-04-26T05:31:34.287Z,67.13
2023-04-26T05:33:36.034Z,66.06
2023-04-26T05:35:37.637Z,65.53
2023-04-26T05:37:40.062Z,65.49
2023-04-26T05:39:41.727Z,65.15
2023-04-26T05:41:43.513Z,64.92
2023-04-26T05:43:46.371Z,64.66
2023-04-26T05:45:57.266Z,63.81
2023-04-26T05:47:58.995Z,63.82
2023-04-26T05:50:00.586Z,64.28
2023-04-26T05:52:03.961Z,64.30
2023-04-26T05:54:05.848Z,64.06
2023-04-26T05:56:07.692Z,63.27
2023-04-26T05:58:09.982Z,63.56
2023-04-26T06:00:12.607Z,63.18
2023-04-26T06:02:14.278Z,63.92
2023-04-26T06:04:16.233Z,64.86
2023-04-26T06:06:18.874Z,65.01
2023-04-26T06:08:20.467Z,63.38
2023-04-26T06:10:22.234Z,63.04
2023-04-26T06:12:23.889Z,63.28
2023-04-26T06:14:30.408Z,63.35
2023-04-26T06:16:32.688Z,63.50
2023-04-26T06:18:34.290Z,63.31
2023-04-26T06:20:36.240Z,65.39
2023-04-26T06:22:38.765Z,66.05
2023-04-26T06:24:41.107Z,63.29
2023-04-26T06:26:42.672Z,64.11
2023-04-26T06:28:44.286Z,64.00
2023-04-26T06:30:45.994Z,64.50
2023-04-26T06:32:48.455Z,65.73
2023-04-26T06:34:50.219Z,63.05
2023-04-26T06:36:51.990Z,62.56
2023-04-26T06:38:53.771Z,62.35
2023-04-26T06:40:55.415Z,61.75
2023-04-26T06:45:17.134Z,64.94
2023-04-26T06:47:18.720Z,64.97
2023-04-26T06:49:20.369Z,63.68
2023-04-26T06:51:22.050Z,63.50
2023-04-26T06:53:23.631Z,64.65
2023-04-26T06:55:25.418Z,64.88
2023-04-26T06:57:27.118Z,64.08
2023-04-26T06:59:28.786Z,66.36
2023-04-26T07:01:33.776Z,65.44
2023-04-26T07:03:35.796Z,65.09
2023-04-26T07:05:39.601Z,63.63
2023-04-26T07:07:41.410Z,62.87
2023-04-26T07:09:43.542Z,61.91
2023-04-26T07:11:47.985Z,61.50
2023-04-26T07:13:50.104Z,63.97
2023-04-26T07:15:51.916Z,62.94
2023-04-26T07:17:53.608Z,61.66
2023-04-26T07:19:56.193Z,60.95
2023-04-26T07:21:57.959Z,58.64
2023-04-26T07:23:59.681Z,57.62
2023-04-26T07:26:04.602Z,57.23
2023-04-26T07:28:06.268Z,55.89
2023-04-26T07:30:08.508Z,56.79
2023-04-26T07:32:10.155Z,55.77
2023-04-26T07:34:11.831Z,56.06
2023-04-26T07:36:13.464Z,56.71
2023-04-26T07:38:19.628Z,57.05
2023-04-26T07:40:22.891Z,56.62
2023-04-26T07:42:24.590Z,56.11
2023-04-26T07:44:26.502Z,57.25
2023-04-26T07:46:28.132Z,57.04
2023-04-26T07:48:29.791Z,56.46
2023-04-26T07:50:31.442Z,56.06
2023-04-26T07:52:33.100Z,56.25
2023-04-26T07:54:34.859Z,57.56
2023-04-26T07:56:36.448Z,57.77
2023-04-26T07:58:39.656Z,56.35
2023-04-26T08:00:41.786Z,56.91
2023-04-26T08:02:45.487Z,56.02
2023-04-26T08:04:57.871Z,55.10
2023-04-26T08:07:03.003Z,57.37
2023-04-26T08:09:05.295Z,58.01
2023-04-26T08:11:10.664Z,57.87
2023-04-26T08:13:12.277Z,58.32
2023-04-26T08:15:13.985Z,58.35
2023-04-26T08:17:15.809Z,58.71
2023-04-26T08:19:17.477Z,58.09
2023-04-26T08:21:19.096Z,56.92
2023-04-26T08:23:21.501Z,56.40
2023-04-26T08:25:23.901Z,55.73
2023-04-26T08:27:26.343Z,56.89
2023-04-26T08:29:28.105Z,56.22
2023-04-26T08:31:29.779Z,55.69
2023-04-26T08:33:31.632Z,54.46
2023-04-26T08:35:33.350Z,53.58
2023-04-26T08:37:35.899Z,54.11
2023-04-26T08:39:37.598Z,54.82
2023-04-26T08:41:45.811Z,53.56
2023-04-26T08:43:47.894Z,53.72
2023-04-26T08:45:49.573Z,53.54
2023-04-26T08:47:53.713Z,54.56
2023-04-26T08:50:00.966Z,54.30
2023-04-26T08:52:04.685Z,53.31
2023-04-26T08:54:06.544Z,52.43
2023-04-26T08:56:08.813Z,52.07
2023-04-26T08:58:11.995Z,52.22
2023-04-26T09:00:15.862Z,52.22
2023-04-26T09:02:19.918Z,54.03
2023-04-26T09:04:21.766Z,54.98
2023-04-26T09:06:23.775Z,53.81
2023-04-26T09:08:25.454Z,53.85
2023-04-26T09:10:27.265Z,52.89
2023-04-26T09:12:28.938Z,52.22
2023-04-26T09:14:31.051Z,52.13
2023-04-26T09:16:37.038Z,51.89
2023-04-26T09:18:48.966Z,51.93
2023-04-26T09:21:07.878Z,51.52
2023-04-26T09:23:10.472Z,50.84
2023-04-26T09:25:13.680Z,51.58
2023-04-26T09:27:16.503Z,52.15
2023-04-26T09:29:19.199Z,51.76
2023-04-26T09:31:42.224Z,51.43
2023-04-26T09:33:58.956Z,51.83
2023-04-26T09:36:12.412Z,51.01
2023-04-26T09:38:16.078Z,50.20
2023-04-26T09:40:23.941Z,50.36
2023-04-26T09:42:25.993Z,50.80
2023-04-26T09:44:29.763Z,49.92
2023-04-26T09:46:31.323Z,49.59
2023-04-26T09:48:34.803Z,49.69
2023-04-26T09:50:36.465Z,50.84
2023-04-26T09:52:47.184Z,50.13
2023-04-26T09:54:53.269Z,49.37
2023-04-26T09:57:01.716Z,48.09
2023-04-26T09:59:05.713Z,47.82
2023-04-26T10:01:08.688Z,47.06
2023-04-26T10:03:11.078Z,46.96
2023-04-26T10:05:12.898Z,48.22
2023-04-26T10:07:16.076Z,47.97
2023-04-26T10:09:18.438Z,48.81
2023-04-26T10:11:21.774Z,47.59
2023-04-26T10:13:23.371Z,46.07
2023-04-26T10:15:24.936Z,46.11
2023-04-26T10:17:26.607Z,45.70
2023-04-26T10:19:29.593Z,46.24
2023-04-26T10:21:35.444Z,46.85
2023-04-26T10:23:37.591Z,46.22
2023-04-26T10:25:42.078Z,45.63
2023-04-26T10:27:43.718Z,46.20
2023-04-26T10:29:54.354Z,46.74
2023-04-26T10:32:02.155Z,47.00
2023-04-26T10:34:20.412Z,47.16
2023-04-26T10:36:22.362Z,46.54
2023-04-26T10:38:24.083Z,45.87
2023-04-26T10:40:27.357Z,45.83
2023-04-26T10:42:30.999Z,45.99
2023-04-26T10:44:42.014Z,46.74
2023-04-26T10:46:50.473Z,45.39
2023-04-26T10:48:52.359Z,45.33
2023-04-26T10:51:01.492Z,44.38
2023-04-26T10:53:05.847Z,44.54
2023-04-26T10:55:07.961Z,44.93
2023-04-26T10:57:09.985Z,44.74
2023-04-26T10:59:33.381Z,44.28
2023-04-26T11:01:35.215Z,42.99
2023-04-26T11:03:37.559Z,43.11
2023-04-26T11:05:54.104Z,42.95
2023-04-26T11:08:16.975Z,44.30
2023-04-26T11:10:24.686Z,44.80
2023-04-26T11:12:26.596Z,44.96
2023-04-26T11:14:28.393Z,44.54
2023-04-26T11:16:30.060Z,44.68
2023-04-26T11:18:32.574Z,44.33
2023-04-26T11:20:34.601Z,43.80
2023-04-26T11:22:40.161Z,43.58
2023-04-26T11:24:43.053Z,43.07
2023-04-26T11:26:51.668Z,42.64
2023-04-26T11:28:53.488Z,43.33
2023-04-26T11:30:56.096Z,43.52
2023-04-26T11:33:01.844Z,43.61
2023-04-26T11:35:04.114Z,43.11
2023-04-26T11:37:06.594Z,43.80
2023-04-26T11:39:08.411Z,43.91
2023-04-26T11:41:11.426Z,43.93
2023-04-26T11:43:14.075Z,43.69
2023-04-26T11:45:16.583Z,44.68
2023-04-26T11:47:21.318Z,44.05
2023-04-26T11:49:23.151Z,43.58
2023-04-26T11:51:24.804Z,41.98
2023-04-26T11:53:38.978Z,42.08
2023-04-26T11:55:40.730Z,42.00
2023-04-26T11:57:42.343Z,41.48
2023-04-26T11:59:44.227Z,43.18
2023-04-26T12:01:50.781Z,42.96
2023-04-26T12:03:54.207Z,42.66
2023-04-26T12:05:58.835Z,42.83
2023-04-26T12:08:00.683Z,43.03
2023-04-26T12:10:21.664Z,42.17
2023-04-26T12:12:24.365Z,41.96
2023-04-26T12:14:32.568Z,42.44
2023-04-26T12:16:36.645Z,43.19
2023-04-26T12:18:38.320Z,42.51
2023-04-26T12:20:41.354Z,42.98
2023-04-26T12:22:43.033Z,43.17
2023-04-26T12:24:44.861Z,43.49
2023-04-26T12:26:46.553Z,43.93
2023-04-26T12:28:48.207Z,43.77
2023-04-26T12:30:50.463Z,42.87
2023-04-26T12:32:52.261Z,43.08
2023-04-26T12:34:53.899Z,43.53
2023-04-26T12:36:55.890Z,43.53
2023-04-26T12:38:58.159Z,42.46
2023-04-26T12:40:59.834Z,43.52
2023-04-26T12:43:01.459Z,43.91
2023-04-26T12:45:03.997Z,44.09
2023-04-26T12:47:05.762Z,43.85
2023-04-26T12:49:07.677Z,43.56
2023-04-26T12:51:09.398Z,44.12
2023-04-26T12:53:14.123Z,43.90
2023-04-26T12:55:16.527Z,43.06
2023-04-26T12:57:18.214Z,42.59
2023-04-26T12:59:19.861Z,42.11
2023-04-26T13:01:21.629Z,41.04
2023-04-26T13:03:23.330Z,42.26
2023-04-26T13:05:25.492Z,43.95
2023-04-26T13:07:27.890Z,45.83
2023-04-26T13:09:29.530Z,46.55
2023-04-26T13:11:31.198Z,46.66
2023-04-26T13:13:43.123Z,45.62
2023-04-26T13:15:45.972Z,45.29
2023-04-26T13:17:47.688Z,46.23
2023-04-26T13:19:49.341Z,47.03
2023-04-26T13:21:52.657Z,45.64
2023-04-26T13:23:54.318Z,45.20
2023-04-26T13:25:55.940Z,45.02
2023-04-26T13:27:57.568Z,45.21
2023-04-26T13:29:59.226Z,45.83
2023-04-26T13:32:01.349Z,44.93
2023-04-26T13:34:03.659Z,45.03
2023-04-26T13:36:05.555Z,45.26
2023-04-26T13:38:07.228Z,45.60
2023-04-26T13:40:11.334Z,46.13
2023-04-26T13:42:14.659Z,47.21
2023-04-26T13:44:16.381Z,47.65
2023-04-26T13:46:18.057Z,46.77
2023-04-26T13:48:19.767Z,46.68
2023-04-26T13:50:21.394Z,47.84
2023-04-26T13:52:22.952Z,48.14
2023-04-26T13:54:27.383Z,48.18
2023-04-26T13:56:29.044Z,47.73
2023-04-26T13:58:30.722Z,47.69
2023-04-26T14:00:32.349Z,47.43
2023-04-26T14:02:34.038Z,47.45
2023-04-26T14:04:36.066Z,48.10
2023-04-26T14:06:37.949Z,49.00
2023-04-26T14:08:39.567Z,48.85
2023-04-26T14:10:41.227Z,48.47
2023-04-26T14:12:42.983Z,48.39
2023-04-26T14:14:46.448Z,49.37
2023-04-26T14:16:48.073Z,48.69
2023-04-26T14:18:49.657Z,48.97
2023-04-26T14:20:51.795Z,49.41
2023-04-26T14:22:53.373Z,48.88
2023-04-26T14:24:55.286Z,48.80
2023-04-26T14:26:58.354Z,49.76
2023-04-26T14:29:00.844Z,50.78
2023-04-26T14:31:03.058Z,51.14
2023-04-26T14:33:04.776Z,51.54
2023-04-26T14:35:06.698Z,51.71
2023-04-26T14:37:08.430Z,52.03
2023-04-26T14:39:09.993Z,52.03
2023-04-26T14:41:16.620Z,51.91
2023-04-26T14:43:18.281Z,52.13
2023-04-26T14:45:23.607Z,51.94
2023-04-26T14:47:27.164Z,52.02
2023-04-26T14:49:28.780Z,52.06
2023-04-26T14:51:30.385Z,51.73
2023-04-26T14:53:32.024Z,51.71
2023-04-26T14:55:33.648Z,51.41
2023-04-26T14:57:35.279Z,51.85
2023-04-26T14:59:37.249Z,51.78
2023-04-26T15:01:38.982Z,51.94
2023-04-26T15:03:40.917Z,52.30
2023-04-26T15:05:42.810Z,53.15
2023-04-26T15:07:44.395Z,54.04
2023-04-26T15:09:46.402Z,54.12
2023-04-26T15:11:48.004Z,53.60
2023-04-26T15:13:49.592Z,53.62
2023-04-26T15:15:51.374Z,53.99
2023-04-26T15:17:53.021Z,53.93
2023-04-26T15:19:54.772Z,54.08
2023-04-26T15:21:56.377Z,54.49
2023-04-26T15:23:57.976Z,54.96
2023-04-26T15:26:03.474Z,55.19
2023-04-26T15:28:05.322Z,54.79
2023-04-26T15:30:08.991Z,55.23
2023-04-26T15:32:11.247Z,54.92
2023-04-26T15:34:12.887Z,54.64
2023-04-26T15:36:16.365Z,54.79
2023-04-26T15:38:17.982Z,55.80
2023-04-26T15:40:21.145Z,55.86
2023-04-26T15:42:22.971Z,55.57
2023-04-26T15:44:24.625Z,55.60
2023-04-26T15:46:26.342Z,55.72
2023-04-26T15:48:28.105Z,55.46
2023-04-26T15:50:29.718Z,55.47
2023-04-26T15:52:37.729Z,55.54
2023-04-26T15:54:40.762Z,56.11
2023-04-26T15:56:42.735Z,55.84
2023-04-26T15:58:45.342Z,55.60
2023-04-26T16:00:47.201Z,55.47
2023-04-26T16:02:48.964Z,55.16
2023-04-26T16:04:50.845Z,54.92
2023-04-26T16:06:52.496Z,55.50
2023-04-26T16:08:54.546Z,55.19
2023-04-26T16:11:00.528Z,55.68
2023-04-26T16:13:02.084Z,55.93
2023-04-26T16:15:03.906Z,56.36
2023-04-26T16:17:05.951Z,57.05
2023-04-26T16:19:08.342Z,57.63
2023-04-26T16:21:10.517Z,58.48
2023-04-26T16:23:12.217Z,57.85
2023-04-26T16:25:13.850Z,57.89
2023-04-26T16:27:15.481Z,57.09
2023-04-26T16:29:17.113Z,57.24
2023-04-26T16:31:19.082Z,56.84
2023-04-26T16:33:22.940Z,56.96
2023-04-26T16:35:25.029Z,57.24
2023-04-26T16:37:26.613Z,56.88
2023-04-26T16:39:28.750Z,57.15
2023-04-26T16:41:30.482Z,56.67
2023-04-26T16:43:32.679Z,57.46
2023-04-26T16:45:34.321Z,57.49
2023-04-26T16:47:36.471Z,57.82
2023-04-26T16:49:38.112Z,57.62
2023-04-26T16:51:39.715Z,57.90
2023-04-26T16:53:41.545Z,57.73
2023-04-26T16:55:43.244Z,57.73
2023-04-26T16:57:44.844Z,57.20
2023-04-26T16:59:46.513Z,57.36
2023-04-26T17:01:48.176Z,57.57
2023-04-26T17:03:49.971Z,57.39
2023-04-26T17:05:51.721Z,57.00
2023-04-26T17:07:53.298Z,57.35
2023-04-26T17:09:55.440Z,57.56
2023-04-26T17:11:57.103Z,57.85
2023-04-26T17:13:58.721Z,57.78
2023-04-26T17:16:00.863Z,57.58
2023-04-26T17:18:04.522Z,57.46
2023-04-26T17:20:09.375Z,56.90
2023-04-26T17:22:12.455Z,56.99
2023-04-26T17:24:14.119Z,57.16
2023-04-26T17:26:15.722Z,56.83
2023-04-26T17:28:17.376Z,56.75
2023-04-26T17:30:22.817Z,56.68
2023-04-26T17:32:24.783Z,56.93
2023-04-26T17:34:26.708Z,57.19
2023-04-26T17:36:28.332Z,57.07
2023-04-26T17:38:29.919Z,56.91
2023-04-26T17:40:31.522Z,57.02
2023-04-26T17:42:33.180Z,57.50
2023-04-26T17:44:34.851Z,57.45
2023-04-26T17:46:36.490Z,56.95
2023-04-26T17:48:38.093Z,56.96
2023-04-26T17:50:40.316Z,56.79
2023-04-26T17:52:41.989Z,56.78
2023-04-26T17:54:43.849Z,56.70
2023-04-26T17:56:46.190Z,56.71
2023-04-26T17:58:48.706Z,56.42
2023-04-26T18:00:50.627Z,56.47
2023-04-26T18:02:53.884Z,56.64
2023-04-26T18:04:56.032Z,57.00
2023-04-26T18:06:57.742Z,57.11
2023-04-26T18:08:59.340Z,57.47
2023-04-26T18:11:01.036Z,57.03
2023-04-26T18:13:02.803Z,56.92
2023-04-26T18:15:04.874Z,57.26
2023-04-26T18:17:06.501Z,56.85
2023-04-26T18:19:08.439Z,56.60
2023-04-26T18:21:11.157Z,56.67
2023-04-26T18:23:12.784Z,56.34
2023-04-26T18:25:14.405Z,56.73
2023-04-26T18:27:16.015Z,56.42
2023-04-26T18:29:17.679Z,56.52
2023-04-26T18:31:20.929Z,56.23
2023-04-26T18:33:22.706Z,56.83
2023-04-26T18:35:24.449Z,57.78
2023-04-26T18:37:26.228Z,57.40
2023-04-26T18:39:27.800Z,57.35
2023-04-26T18:41:29.468Z,57.17
2023-04-26T18:43:31.227Z,56.98
2023-04-26T18:45:33.212Z,56.94
2023-04-26T18:47:34.903Z,56.63
2023-04-26T18:49:36.698Z,56.04
2023-04-26T18:51:38.384Z,56.00
2023-04-26T18:53:39.989Z,55.77
2023-04-26T18:55:41.982Z,56.00
2023-04-26T18:57:43.641Z,55.64
2023-04-26T18:59:45.347Z,55.77
2023-04-26T19:01:47.266Z,55.56
2023-04-26T19:03:49.137Z,55.69
2023-04-26T19:05:50.831Z,55.23
2023-04-26T19:07:53.528Z,55.25
2023-04-26T19:10:00.788Z,55.41
2023-04-26T19:12:02.728Z,55.16
2023-04-26T19:14:04.476Z,55.46
2023-04-26T19:16:09.473Z,54.89
2023-04-26T19:18:11.321Z,54.93
2023-04-26T19:20:15.237Z,55.22
2023-04-26T19:22:16.866Z,54.85
2023-04-26T19:24:19.294Z,55.23
2023-04-26T19:26:20.944Z,54.74
2023-04-26T19:28:22.528Z,54.68
2023-04-26T19:30:24.175Z,54.92
2023-04-26T19:32:25.981Z,55.11
2023-04-26T19:34:28.020Z,55.24
2023-04-26T19:36:29.697Z,55.25
2023-04-26T19:38:31.322Z,55.02
2023-04-26T19:40:32.941Z,54.95
2023-04-26T19:42:34.557Z,55.52
2023-04-26T19:44:36.216Z,54.95
2023-04-26T19:46:37.938Z,55.29
2023-04-26T19:48:40.477Z,55.14
2023-04-26T19:50:46.702Z,55.25
2023-04-26T19:52:48.319Z,55.65
2023-04-26T19:54:49.896Z,55.54
2023-04-26T19:56:51.610Z,55.34
2023-04-26T19:58:53.222Z,55.76
2023-04-26T20:00:54.916Z,55.57
2023-04-26T20:02:58.394Z,55.60
2023-04-26T20:05:00.038Z,55.83
2023-04-26T20:07:04.794Z,55.88
2023-04-26T20:09:10.866Z,55.97
2023-04-26T20:11:15.382Z,56.62
2023-04-26T20:13:17.161Z,56.09
2023-04-26T20:15:19.327Z,56.23
2023-04-26T20:17:21.568Z,55.69
2023-04-26T20:19:23.570Z,55.98
2023-04-26T20:21:26.595Z,55.58
2023-04-26T20:23:29.445Z,55.85
2023-04-26T20:25:31.929Z,56.03
2023-04-26T20:27:33.925Z,55.47
2023-04-26T20:29:36.031Z,56.25
2023-04-26T20:31:37.826Z,55.77
2023-04-26T20:33:39.445Z,55.63
2023-04-26T20:35:41.418Z,55.29
2023-04-26T20:37:43.031Z,56.19
2023-04-26T20:39:44.728Z,55.63
2023-04-26T20:41:46.505Z,55.89
2023-04-26T20:43:48.099Z,55.41
2023-04-26T20:45:51.001Z,55.75
2023-04-26T20:47:52.689Z,56.11
2023-04-26T20:49:54.560Z,56.13
2023-04-26T20:52:14.961Z,56.22
2023-04-26T20:54:16.617Z,55.74
2023-04-26T20:56:18.321Z,55.72
2023-04-26T20:58:19.896Z,55.07
2023-04-26T21:00:21.631Z,55.24
2023-04-26T21:02:23.377Z,55.26
2023-04-26T21:04:25.284Z,54.59
2023-04-26T21:06:30.132Z,54.86
2023-04-26T21:08:31.798Z,55.15
2023-04-26T21:10:33.342Z,54.76
2023-04-26T21:12:35.030Z,54.24
2023-04-26T21:14:36.625Z,53.86
2023-04-26T21:16:38.232Z,54.31
2023-04-26T21:18:39.859Z,54.60
2023-04-26T21:20:41.510Z,53.57
2023-04-26T21:22:43.084Z,53.84
2023-04-26T21:24:44.810Z,53.97
2023-04-26T21:26:46.340Z,53.16
2023-04-26T21:28:48.028Z,53.60
2023-04-26T21:30:49.614Z,53.33
2023-04-26T21:32:51.208Z,52.70
2023-04-26T21:34:52.801Z,52.44
2023-04-26T21:36:54.426Z,52.08
2023-04-26T21:38:55.997Z,52.36
2023-04-26T21:40:57.622Z,52.31
2023-04-26T21:43:05.342Z,52.54
2023-04-26T21:45:08.145Z,52.53
2023-04-26T21:47:09.902Z,52.04
2023-04-26T21:49:11.758Z,52.11
2023-04-26T21:51:13.700Z,52.17
2023-04-26T21:53:15.577Z,51.97
2023-04-26T21:55:17.226Z,52.75
2023-04-26T21:57:20.276Z,52.41
2023-04-26T21:59:21.871Z,51.87
2023-04-26T22:01:23.464Z,52.29
2023-04-26T22:03:25.323Z,51.82
2023-04-26T22:05:27.227Z,51.75
2023-04-26T22:07:28.828Z,52.39
2023-04-26T22:09:30.691Z,51.64
2023-04-26T22:11:32.268Z,51.88
2023-04-26T22:13:33.938Z,51.89
2023-04-26T22:15:35.732Z,51.85
2023-04-26T22:17:37.332Z,51.19
2023-04-26T22:19:38.948Z,52.05
2023-04-26T22:21:40.797Z,51.43
2023-04-26T22:23:42.350Z,51.41
2023-04-26T22:25:43.950Z,51.92
2023-04-26T22:27:45.573Z,52.06
2023-04-26T22:29:47.134Z,52.07
2023-04-26T22:31:48.737Z,52.03
2023-04-26T22:33:50.325Z,51.75
2023-04-26T22:35:52.030Z,51.84
2023-04-26T22:37:54.415Z,51.43
2023-04-26T22:39:56.547Z,52.29
2023-04-26T22:41:58.103Z,51.63
2023-04-26T22:43:59.731Z,51.19
2023-04-26T22:46:01.905Z,51.47
2023-04-26T22:48:03.706Z,51.53
2023-04-26T22:50:06.149Z,51.73
2023-04-26T22:52:17.099Z,50.89
2023-04-26T22:54:25.777Z,51.54
2023-04-26T22:56:27.400Z,50.77
2023-04-26T22:58:28.934Z,51.02
2023-04-26T23:00:30.928Z,50.42
2023-04-26T23:02:32.665Z,50.14
2023-04-26T23:04:34.295Z,50.37
2023-04-26T23:06:36.369Z,50.22
2023-04-26T23:08:38.022Z,50.38
2023-04-26T23:10:40.044Z,50.68
2023-04-26T23:12:41.741Z,50.42
2023-04-26T23:14:43.357Z,50.44
2023-04-26T23:16:45.866Z,50.55
2023-04-26T23:18:47.643Z,49.96
2023-04-26T23:20:49.563Z,50.56
2023-04-26T23:22:51.393Z,50.11
2023-04-26T23:24:53.297Z,50.34
2023-04-26T23:26:54.903Z,50.08
2023-04-26T23:28:57.299Z,49.47
2023-04-26T23:30:58.896Z,49.21
2023-04-26T23:33:00.568Z,49.21
2023-04-26T23:35:02.187Z,49.97
2023-04-26T23:37:07.030Z,49.53
2023-04-26T23:39:10.029Z,49.70
2023-04-26T23:41:11.728Z,49.16
2023-04-26T23:43:14.047Z,49.20
2023-04-26T23:45:16.095Z,49.50
2023-04-26T23:47:17.747Z,49.27
2023-04-26T23:49:19.308Z,49.54
2023-04-26T23:51:20.966Z,49.72
2023-04-26T23:53:22.613Z,49.92
2023-04-26T23:55:24.230Z,49.67
2023-04-26T23:57:25.871Z,49.51
2023-04-26T23:59:27.483Z,49.61
